sensor_id;sensor_type;location;lat;lon;timestamp;P1;durP1;ratioP1;P2;durP2;ratioP2
61015;SDS011;46902;52.920;6.536;2023-12-14T00:00:46;7.22;;;6.20;;
61015;SDS011;46902;52.920;6.536;2023-12-14T00:03:12;7.68;;;5.25;;
61015;SDS011;46902;52.920;6.536;2023-12-14T00:05:38;7.40;;;5.60;;
61015;SDS011;46902;52.920;6.536;2023-12-14T00:08:03;7.60;;;5.63;;
61015;SDS011;46902;52.920;6.536;2023-12-14T00:10:29;8.57;;;5.93;;
61015;SDS011;46902;52.920;6.536;2023-12-14T00:12:54;6.95;;;5.63;;
61015;SDS011;46902;52.920;6.536;2023-12-14T00:15:20;7.22;;;5.93;;
61015;SDS011;46902;52.920;6.536;2023-12-14T00:17:46;9.57;;;5.88;;
61015;SDS011;46902;52.920;6.536;2023-12-14T00:20:12;11.02;;;6.10;;
61015;SDS011;46902;52.920;6.536;2023-12-14T00:22:37;7.93;;;5.88;;
61015;SDS011;46902;52.920;6.536;2023-12-14T00:25:04;9.63;;;6.10;;
61015;SDS011;46902;52.920;6.536;2023-12-14T00:27:30;11.55;;;6.25;;
61015;SDS011;46902;52.920;6.536;2023-12-14T00:29:55;9.07;;;6.28;;
61015;SDS011;46902;52.920;6.536;2023-12-14T00:32:21;11.02;;;7.13;;
61015;SDS011;46902;52.920;6.536;2023-12-14T00:34:46;8.90;;;5.95;;
61015;SDS011;46902;52.920;6.536;2023-12-14T00:37:12;8.57;;;6.63;;
61015;SDS011;46902;52.920;6.536;2023-12-14T00:39:38;12.25;;;6.50;;
61015;SDS011;46902;52.920;6.536;2023-12-14T00:42:03;9.65;;;6.13;;
61015;SDS011;46902;52.920;6.536;2023-12-14T00:44:29;9.63;;;6.75;;
61015;SDS011;46902;52.920;6.536;2023-12-14T00:46:54;10.20;;;6.13;;
61015;SDS011;46902;52.920;6.536;2023-12-14T00:49:20;8.73;;;5.70;;
61015;SDS011;46902;52.920;6.536;2023-12-14T00:51:46;7.80;;;5.75;;
61015;SDS011;46902;52.920;6.536;2023-12-14T00:54:11;12.27;;;6.43;;
61015;SDS011;46902;52.920;6.536;2023-12-14T00:56:37;9.27;;;6.15;;
61015;SDS011;46902;52.920;6.536;2023-12-14T00:59:02;10.65;;;6.32;;
61015;SDS011;46902;52.920;6.536;2023-12-14T01:01:28;11.18;;;6.50;;
61015;SDS011;46902;52.920;6.536;2023-12-14T01:03:53;8.60;;;6.00;;
61015;SDS011;46902;52.920;6.536;2023-12-14T01:06:19;8.77;;;5.95;;
61015;SDS011;46902;52.920;6.536;2023-12-14T01:08:45;10.50;;;6.22;;
61015;SDS011;46902;52.920;6.536;2023-12-14T01:11:11;7.63;;;5.40;;
61015;SDS011;46902;52.920;6.536;2023-12-14T01:13:36;8.15;;;5.57;;
61015;SDS011;46902;52.920;6.536;2023-12-14T01:16:02;9.45;;;5.80;;
61015;SDS011;46902;52.920;6.536;2023-12-14T01:18:27;8.20;;;5.47;;
61015;SDS011;46902;52.920;6.536;2023-12-14T01:20:53;8.80;;;5.70;;
61015;SDS011;46902;52.920;6.536;2023-12-14T01:23:19;9.75;;;6.20;;
61015;SDS011;46902;52.920;6.536;2023-12-14T01:25:44;7.30;;;5.72;;
61015;SDS011;46902;52.920;6.536;2023-12-14T01:28:10;8.88;;;5.10;;
61015;SDS011;46902;52.920;6.536;2023-12-14T01:30:35;8.48;;;4.93;;
61015;SDS011;46902;52.920;6.536;2023-12-14T01:33:01;8.45;;;5.55;;
61015;SDS011;46902;52.920;6.536;2023-12-14T01:35:27;8.80;;;5.18;;
61015;SDS011;46902;52.920;6.536;2023-12-14T01:37:54;9.35;;;5.63;;
61015;SDS011;46902;52.920;6.536;2023-12-14T01:40:20;11.55;;;5.97;;
61015;SDS011;46902;52.920;6.536;2023-12-14T01:42:46;8.32;;;5.32;;
61015;SDS011;46902;52.920;6.536;2023-12-14T01:45:11;8.80;;;5.45;;
61015;SDS011;46902;52.920;6.536;2023-12-14T01:47:40;7.82;;;5.70;;
61015;SDS011;46902;52.920;6.536;2023-12-14T01:50:06;7.72;;;5.05;;
61015;SDS011;46902;52.920;6.536;2023-12-14T01:52:32;8.70;;;5.22;;
61015;SDS011;46902;52.920;6.536;2023-12-14T01:54:58;7.65;;;5.50;;
61015;SDS011;46902;52.920;6.536;2023-12-14T01:57:24;6.78;;;4.88;;
61015;SDS011;46902;52.920;6.536;2023-12-14T01:59:49;7.38;;;5.32;;
61015;SDS011;46902;52.920;6.536;2023-12-14T02:02:15;7.55;;;5.10;;
61015;SDS011;46902;52.920;6.536;2023-12-14T02:04:40;7.55;;;5.20;;
61015;SDS011;46902;52.920;6.536;2023-12-14T02:07:06;8.45;;;5.10;;
61015;SDS011;46902;52.920;6.536;2023-12-14T02:09:32;7.30;;;5.13;;
61015;SDS011;46902;52.920;6.536;2023-12-14T02:11:57;8.85;;;5.30;;
61015;SDS011;46902;52.920;6.536;2023-12-14T02:14:23;6.90;;;4.95;;
61015;SDS011;46902;52.920;6.536;2023-12-14T02:16:49;9.02;;;5.38;;
61015;SDS011;46902;52.920;6.536;2023-12-14T02:19:14;7.72;;;5.22;;
61015;SDS011;46902;52.920;6.536;2023-12-14T02:21:40;7.80;;;5.72;;
61015;SDS011;46902;52.920;6.536;2023-12-14T02:24:05;7.78;;;5.43;;
61015;SDS011;46902;52.920;6.536;2023-12-14T02:26:31;10.13;;;5.70;;
61015;SDS011;46902;52.920;6.536;2023-12-14T02:28:57;7.25;;;5.10;;
61015;SDS011;46902;52.920;6.536;2023-12-14T02:31:22;6.32;;;5.00;;
61015;SDS011;46902;52.920;6.536;2023-12-14T02:33:48;7.20;;;5.22;;
61015;SDS011;46902;52.920;6.536;2023-12-14T02:36:13;9.30;;;5.35;;
61015;SDS011;46902;52.920;6.536;2023-12-14T02:38:39;7.43;;;5.30;;
61015;SDS011;46902;52.920;6.536;2023-12-14T02:41:05;7.18;;;5.45;;
61015;SDS011;46902;52.920;6.536;2023-12-14T02:43:30;9.10;;;5.65;;
61015;SDS011;46902;52.920;6.536;2023-12-14T02:45:56;9.73;;;5.60;;
61015;SDS011;46902;52.920;6.536;2023-12-14T02:48:27;7.63;;;4.90;;
61015;SDS011;46902;52.920;6.536;2023-12-14T02:50:53;8.30;;;5.70;;
61015;SDS011;46902;52.920;6.536;2023-12-14T02:53:19;9.40;;;5.82;;
61015;SDS011;46902;52.920;6.536;2023-12-14T02:55:45;8.77;;;5.55;;
61015;SDS011;46902;52.920;6.536;2023-12-14T02:58:10;7.60;;;5.80;;
61015;SDS011;46902;52.920;6.536;2023-12-14T03:00:36;9.80;;;6.22;;
61015;SDS011;46902;52.920;6.536;2023-12-14T03:03:01;16.98;;;6.07;;
61015;SDS011;46902;52.920;6.536;2023-12-14T03:05:27;10.68;;;6.13;;
61015;SDS011;46902;52.920;6.536;2023-12-14T03:07:53;8.73;;;6.20;;
61015;SDS011;46902;52.920;6.536;2023-12-14T03:10:18;9.68;;;6.03;;
61015;SDS011;46902;52.920;6.536;2023-12-14T03:12:44;9.52;;;5.85;;
61015;SDS011;46902;52.920;6.536;2023-12-14T03:15:09;10.35;;;5.90;;
61015;SDS011;46902;52.920;6.536;2023-12-14T03:17:35;12.05;;;6.90;;
61015;SDS011;46902;52.920;6.536;2023-12-14T03:20:01;11.40;;;6.78;;
61015;SDS011;46902;52.920;6.536;2023-12-14T03:22:28;11.70;;;6.45;;
61015;SDS011;46902;52.920;6.536;2023-12-14T03:24:54;10.18;;;6.30;;
61015;SDS011;46902;52.920;6.536;2023-12-14T03:27:19;9.93;;;6.45;;
61015;SDS011;46902;52.920;6.536;2023-12-14T03:29:47;10.27;;;6.97;;
61015;SDS011;46902;52.920;6.536;2023-12-14T03:32:13;11.00;;;6.90;;
61015;SDS011;46902;52.920;6.536;2023-12-14T03:34:38;12.77;;;8.10;;
61015;SDS011;46902;52.920;6.536;2023-12-14T03:37:04;14.13;;;7.30;;
61015;SDS011;46902;52.920;6.536;2023-12-14T03:39:29;13.20;;;8.10;;
61015;SDS011;46902;52.920;6.536;2023-12-14T03:41:55;10.68;;;7.60;;
61015;SDS011;46902;52.920;6.536;2023-12-14T03:44:20;15.02;;;8.27;;
61015;SDS011;46902;52.920;6.536;2023-12-14T03:46:46;11.65;;;7.60;;
61015;SDS011;46902;52.920;6.536;2023-12-14T03:49:12;15.00;;;8.02;;
61015;SDS011;46902;52.920;6.536;2023-12-14T03:51:37;12.38;;;7.38;;
61015;SDS011;46902;52.920;6.536;2023-12-14T03:54:03;12.82;;;8.40;;
61015;SDS011;46902;52.920;6.536;2023-12-14T03:56:29;14.85;;;8.30;;
61015;SDS011;46902;52.920;6.536;2023-12-14T03:58:54;15.75;;;8.50;;
61015;SDS011;46902;52.920;6.536;2023-12-14T04:01:22;14.38;;;7.78;;
61015;SDS011;46902;52.920;6.536;2023-12-14T04:03:47;14.70;;;8.27;;
61015;SDS011;46902;52.920;6.536;2023-12-14T04:06:13;13.95;;;8.10;;
61015;SDS011;46902;52.920;6.536;2023-12-14T04:08:39;11.70;;;7.32;;
61015;SDS011;46902;52.920;6.536;2023-12-14T04:11:05;14.13;;;8.00;;
61015;SDS011;46902;52.920;6.536;2023-12-14T04:13:31;11.10;;;7.63;;
61015;SDS011;46902;52.920;6.536;2023-12-14T04:15:57;13.43;;;8.07;;
61015;SDS011;46902;52.920;6.536;2023-12-14T04:18:23;13.63;;;7.43;;
61015;SDS011;46902;52.920;6.536;2023-12-14T04:20:48;13.07;;;7.22;;
61015;SDS011;46902;52.920;6.536;2023-12-14T04:23:14;13.32;;;7.45;;
61015;SDS011;46902;52.920;6.536;2023-12-14T04:25:40;15.82;;;7.93;;
61015;SDS011;46902;52.920;6.536;2023-12-14T04:28:05;14.50;;;8.55;;
61015;SDS011;46902;52.920;6.536;2023-12-14T04:30:31;10.85;;;7.72;;
61015;SDS011;46902;52.920;6.536;2023-12-14T04:32:56;13.48;;;8.02;;
61015;SDS011;46902;52.920;6.536;2023-12-14T04:35:22;15.30;;;7.85;;
61015;SDS011;46902;52.920;6.536;2023-12-14T04:37:48;13.10;;;7.20;;
61015;SDS011;46902;52.920;6.536;2023-12-14T04:40:14;13.88;;;8.10;;
61015;SDS011;46902;52.920;6.536;2023-12-14T04:42:39;13.55;;;7.45;;
61015;SDS011;46902;52.920;6.536;2023-12-14T04:45:05;13.63;;;8.30;;
61015;SDS011;46902;52.920;6.536;2023-12-14T04:47:31;15.02;;;7.50;;
61015;SDS011;46902;52.920;6.536;2023-12-14T04:49:57;11.02;;;7.28;;
61015;SDS011;46902;52.920;6.536;2023-12-14T04:52:22;14.40;;;7.57;;
61015;SDS011;46902;52.920;6.536;2023-12-14T04:54:48;14.73;;;7.28;;
61015;SDS011;46902;52.920;6.536;2023-12-14T04:57:14;13.02;;;8.05;;
61015;SDS011;46902;52.920;6.536;2023-12-14T04:59:43;15.60;;;7.95;;
61015;SDS011;46902;52.920;6.536;2023-12-14T05:02:08;12.85;;;7.22;;
61015;SDS011;46902;52.920;6.536;2023-12-14T05:04:34;17.75;;;7.85;;
61015;SDS011;46902;52.920;6.536;2023-12-14T05:07:00;12.52;;;7.03;;
61015;SDS011;46902;52.920;6.536;2023-12-14T05:09:25;13.45;;;7.57;;
61015;SDS011;46902;52.920;6.536;2023-12-14T05:11:51;14.32;;;7.20;;
61015;SDS011;46902;52.920;6.536;2023-12-14T05:14:18;13.63;;;7.55;;
61015;SDS011;46902;52.920;6.536;2023-12-14T05:16:43;15.50;;;8.45;;
61015;SDS011;46902;52.920;6.536;2023-12-14T05:19:09;17.13;;;7.90;;
61015;SDS011;46902;52.920;6.536;2023-12-14T05:21:34;10.10;;;7.22;;
61015;SDS011;46902;52.920;6.536;2023-12-14T05:24:00;14.13;;;7.40;;
61015;SDS011;46902;52.920;6.536;2023-12-14T05:26:26;10.95;;;6.55;;
61015;SDS011;46902;52.920;6.536;2023-12-14T05:28:52;11.05;;;6.88;;
61015;SDS011;46902;52.920;6.536;2023-12-14T05:31:17;14.43;;;7.53;;
61015;SDS011;46902;52.920;6.536;2023-12-14T05:33:43;9.93;;;6.25;;
61015;SDS011;46902;52.920;6.536;2023-12-14T05:36:09;10.23;;;6.85;;
61015;SDS011;46902;52.920;6.536;2023-12-14T05:38:39;11.02;;;6.88;;
61015;SDS011;46902;52.920;6.536;2023-12-14T05:41:05;13.18;;;6.97;;
61015;SDS011;46902;52.920;6.536;2023-12-14T05:43:30;13.30;;;6.78;;
61015;SDS011;46902;52.920;6.536;2023-12-14T05:45:56;11.52;;;7.18;;
61015;SDS011;46902;52.920;6.536;2023-12-14T05:48:22;11.90;;;6.63;;
61015;SDS011;46902;52.920;6.536;2023-12-14T05:50:47;13.10;;;6.43;;
61015;SDS011;46902;52.920;6.536;2023-12-14T05:53:13;12.13;;;6.35;;
61015;SDS011;46902;52.920;6.536;2023-12-14T05:55:39;9.25;;;6.80;;
61015;SDS011;46902;52.920;6.536;2023-12-14T05:58:06;10.00;;;6.35;;
61015;SDS011;46902;52.920;6.536;2023-12-14T06:00:32;15.05;;;7.30;;
61015;SDS011;46902;52.920;6.536;2023-12-14T06:02:59;14.75;;;6.65;;
61015;SDS011;46902;52.920;6.536;2023-12-14T06:05:25;12.85;;;6.55;;
61015;SDS011;46902;52.920;6.536;2023-12-14T06:07:51;12.43;;;6.97;;
61015;SDS011;46902;52.920;6.536;2023-12-14T06:10:17;9.98;;;6.40;;
61015;SDS011;46902;52.920;6.536;2023-12-14T06:12:42;10.48;;;6.82;;
61015;SDS011;46902;52.920;6.536;2023-12-14T06:15:08;9.27;;;6.38;;
61015;SDS011;46902;52.920;6.536;2023-12-14T06:17:35;9.30;;;6.38;;
61015;SDS011;46902;52.920;6.536;2023-12-14T06:20:02;10.40;;;6.90;;
61015;SDS011;46902;52.920;6.536;2023-12-14T06:22:29;8.98;;;5.80;;
61015;SDS011;46902;52.920;6.536;2023-12-14T06:24:54;9.93;;;5.75;;
61015;SDS011;46902;52.920;6.536;2023-12-14T06:27:20;11.30;;;6.00;;
61015;SDS011;46902;52.920;6.536;2023-12-14T06:29:51;12.38;;;6.28;;
61015;SDS011;46902;52.920;6.536;2023-12-14T06:32:17;10.43;;;6.57;;
61015;SDS011;46902;52.920;6.536;2023-12-14T06:34:42;12.90;;;5.72;;
61015;SDS011;46902;52.920;6.536;2023-12-14T06:37:08;9.85;;;6.50;;
61015;SDS011;46902;52.920;6.536;2023-12-14T06:39:34;12.20;;;6.55;;
61015;SDS011;46902;52.920;6.536;2023-12-14T06:42:00;9.32;;;5.97;;
61015;SDS011;46902;52.920;6.536;2023-12-14T06:44:27;10.40;;;5.68;;
61015;SDS011;46902;52.920;6.536;2023-12-14T06:46:53;7.93;;;5.45;;
61015;SDS011;46902;52.920;6.536;2023-12-14T06:49:20;8.70;;;5.45;;
61015;SDS011;46902;52.920;6.536;2023-12-14T06:51:45;10.48;;;5.82;;
61015;SDS011;46902;52.920;6.536;2023-12-14T06:54:11;9.57;;;6.30;;
61015;SDS011;46902;52.920;6.536;2023-12-14T06:56:37;9.45;;;6.22;;
61015;SDS011;46902;52.920;6.536;2023-12-14T06:59:02;9.05;;;6.05;;
61015;SDS011;46902;52.920;6.536;2023-12-14T07:01:28;12.05;;;6.93;;
61015;SDS011;46902;52.920;6.536;2023-12-14T07:03:53;10.75;;;6.72;;
61015;SDS011;46902;52.920;6.536;2023-12-14T07:06:19;10.50;;;6.13;;
61015;SDS011;46902;52.920;6.536;2023-12-14T07:08:46;11.55;;;7.20;;
61015;SDS011;46902;52.920;6.536;2023-12-14T07:11:12;14.73;;;8.18;;
61015;SDS011;46902;52.920;6.536;2023-12-14T07:13:38;12.65;;;8.20;;
61015;SDS011;46902;52.920;6.536;2023-12-14T07:16:05;11.00;;;7.18;;
61015;SDS011;46902;52.920;6.536;2023-12-14T07:18:33;10.70;;;6.65;;
61015;SDS011;46902;52.920;6.536;2023-12-14T07:21:07;12.35;;;8.00;;
61015;SDS011;46902;52.920;6.536;2023-12-14T07:23:33;12.98;;;7.82;;
61015;SDS011;46902;52.920;6.536;2023-12-14T07:26:00;14.65;;;7.93;;
61015;SDS011;46902;52.920;6.536;2023-12-14T07:28:25;10.95;;;7.45;;
61015;SDS011;46902;52.920;6.536;2023-12-14T07:30:51;13.02;;;7.82;;
61015;SDS011;46902;52.920;6.536;2023-12-14T07:33:17;12.98;;;7.97;;
61015;SDS011;46902;52.920;6.536;2023-12-14T07:35:43;10.43;;;6.75;;
61015;SDS011;46902;52.920;6.536;2023-12-14T07:38:11;10.82;;;7.60;;
61015;SDS011;46902;52.920;6.536;2023-12-14T07:40:37;11.73;;;6.88;;
61015;SDS011;46902;52.920;6.536;2023-12-14T07:43:06;12.02;;;7.05;;
61015;SDS011;46902;52.920;6.536;2023-12-14T07:45:32;12.95;;;7.65;;
61015;SDS011;46902;52.920;6.536;2023-12-14T07:47:58;13.25;;;8.27;;
61015;SDS011;46902;52.920;6.536;2023-12-14T07:50:23;11.70;;;7.57;;
61015;SDS011;46902;52.920;6.536;2023-12-14T07:52:49;11.23;;;7.90;;
61015;SDS011;46902;52.920;6.536;2023-12-14T07:55:14;11.43;;;8.45;;
61015;SDS011;46902;52.920;6.536;2023-12-14T07:57:40;12.25;;;8.43;;
61015;SDS011;46902;52.920;6.536;2023-12-14T08:00:06;13.52;;;9.30;;
61015;SDS011;46902;52.920;6.536;2023-12-14T08:02:34;11.55;;;8.15;;
61015;SDS011;46902;52.920;6.536;2023-12-14T08:05:00;13.35;;;8.57;;
61015;SDS011;46902;52.920;6.536;2023-12-14T08:07:25;12.57;;;8.18;;
61015;SDS011;46902;52.920;6.536;2023-12-14T08:09:54;15.20;;;9.10;;
61015;SDS011;46902;52.920;6.536;2023-12-14T08:12:20;14.48;;;8.45;;
61015;SDS011;46902;52.920;6.536;2023-12-14T08:14:47;14.43;;;8.82;;
61015;SDS011;46902;52.920;6.536;2023-12-14T08:17:12;14.13;;;9.27;;
61015;SDS011;46902;52.920;6.536;2023-12-14T08:19:38;14.98;;;9.50;;
61015;SDS011;46902;52.920;6.536;2023-12-14T08:22:03;16.60;;;9.07;;
61015;SDS011;46902;52.920;6.536;2023-12-14T08:24:29;17.05;;;9.82;;
61015;SDS011;46902;52.920;6.536;2023-12-14T08:26:55;16.70;;;9.27;;
61015;SDS011;46902;52.920;6.536;2023-12-14T08:29:20;18.35;;;10.40;;
61015;SDS011;46902;52.920;6.536;2023-12-14T08:31:47;17.60;;;10.65;;
61015;SDS011;46902;52.920;6.536;2023-12-14T08:34:13;20.98;;;10.30;;
61015;SDS011;46902;52.920;6.536;2023-12-14T08:36:38;12.95;;;9.10;;
61015;SDS011;46902;52.920;6.536;2023-12-14T08:39:04;22.83;;;10.60;;
61015;SDS011;46902;52.920;6.536;2023-12-14T08:41:29;22.80;;;11.45;;
61015;SDS011;46902;52.920;6.536;2023-12-14T08:43:57;21.45;;;11.50;;
61015;SDS011;46902;52.920;6.536;2023-12-14T08:46:23;18.55;;;10.40;;
61015;SDS011;46902;52.920;6.536;2023-12-14T08:48:48;17.95;;;11.73;;
61015;SDS011;46902;52.920;6.536;2023-12-14T08:51:14;20.30;;;10.32;;
61015;SDS011;46902;52.920;6.536;2023-12-14T08:53:40;19.85;;;9.85;;
61015;SDS011;46902;52.920;6.536;2023-12-14T08:56:05;18.17;;;9.98;;
61015;SDS011;46902;52.920;6.536;2023-12-14T08:58:33;16.20;;;10.10;;
61015;SDS011;46902;52.920;6.536;2023-12-14T09:00:58;16.90;;;10.55;;
61015;SDS011;46902;52.920;6.536;2023-12-14T09:03:24;18.75;;;9.77;;
61015;SDS011;46902;52.920;6.536;2023-12-14T09:05:51;21.02;;;10.77;;
61015;SDS011;46902;52.920;6.536;2023-12-14T09:08:17;20.40;;;11.07;;
61015;SDS011;46902;52.920;6.536;2023-12-14T09:10:42;16.23;;;10.07;;
61015;SDS011;46902;52.920;6.536;2023-12-14T09:13:08;22.45;;;10.93;;
61015;SDS011;46902;52.920;6.536;2023-12-14T09:15:34;21.48;;;10.40;;
61015;SDS011;46902;52.920;6.536;2023-12-14T09:18:00;23.60;;;10.95;;
61015;SDS011;46902;52.920;6.536;2023-12-14T09:20:25;20.60;;;11.35;;
61015;SDS011;46902;52.920;6.536;2023-12-14T09:22:51;21.85;;;10.60;;
61015;SDS011;46902;52.920;6.536;2023-12-14T09:25:17;20.30;;;10.77;;
61015;SDS011;46902;52.920;6.536;2023-12-14T09:27:43;20.70;;;10.35;;
61015;SDS011;46902;52.920;6.536;2023-12-14T09:30:09;19.63;;;11.30;;
61015;SDS011;46902;52.920;6.536;2023-12-14T09:32:35;23.90;;;11.68;;
61015;SDS011;46902;52.920;6.536;2023-12-14T09:35:01;18.17;;;10.88;;
61015;SDS011;46902;52.920;6.536;2023-12-14T09:37:27;17.65;;;10.38;;
61015;SDS011;46902;52.920;6.536;2023-12-14T09:39:53;19.10;;;10.23;;
61015;SDS011;46902;52.920;6.536;2023-12-14T09:42:19;21.50;;;10.85;;
61015;SDS011;46902;52.920;6.536;2023-12-14T09:44:46;20.33;;;11.30;;
61015;SDS011;46902;52.920;6.536;2023-12-14T09:47:13;21.02;;;11.20;;
61015;SDS011;46902;52.920;6.536;2023-12-14T09:49:39;19.30;;;10.30;;
61015;SDS011;46902;52.920;6.536;2023-12-14T09:52:07;21.17;;;11.20;;
61015;SDS011;46902;52.920;6.536;2023-12-14T09:54:33;17.70;;;10.57;;
61015;SDS011;46902;52.920;6.536;2023-12-14T09:56:59;22.50;;;11.38;;
61015;SDS011;46902;52.920;6.536;2023-12-14T09:59:25;23.45;;;11.02;;
61015;SDS011;46902;52.920;6.536;2023-12-14T10:01:50;18.15;;;10.57;;
61015;SDS011;46902;52.920;6.536;2023-12-14T10:04:19;22.35;;;11.45;;
61015;SDS011;46902;52.920;6.536;2023-12-14T10:06:46;20.65;;;9.73;;
61015;SDS011;46902;52.920;6.536;2023-12-14T10:09:12;22.25;;;11.38;;
61015;SDS011;46902;52.920;6.536;2023-12-14T10:11:40;21.77;;;10.85;;
61015;SDS011;46902;52.920;6.536;2023-12-14T10:14:23;21.45;;;11.07;;
61015;SDS011;46902;52.920;6.536;2023-12-14T10:16:50;20.88;;;10.73;;
61015;SDS011;46902;52.920;6.536;2023-12-14T10:19:17;18.05;;;10.27;;
61015;SDS011;46902;52.920;6.536;2023-12-14T10:21:43;19.27;;;10.80;;
61015;SDS011;46902;52.920;6.536;2023-12-14T10:24:11;21.30;;;10.82;;
61015;SDS011;46902;52.920;6.536;2023-12-14T10:26:37;18.77;;;10.05;;
61015;SDS011;46902;52.920;6.536;2023-12-14T10:29:03;17.63;;;10.15;;
61015;SDS011;46902;52.920;6.536;2023-12-14T10:31:30;23.90;;;11.63;;
61015;SDS011;46902;52.920;6.536;2023-12-14T10:33:56;17.88;;;11.18;;
61015;SDS011;46902;52.920;6.536;2023-12-14T10:36:23;19.45;;;11.25;;
61015;SDS011;46902;52.920;6.536;2023-12-14T10:38:54;20.25;;;10.73;;
61015;SDS011;46902;52.920;6.536;2023-12-14T10:41:23;19.70;;;10.60;;
61015;SDS011;46902;52.920;6.536;2023-12-14T10:43:50;17.33;;;10.65;;
61015;SDS011;46902;52.920;6.536;2023-12-14T10:46:19;20.90;;;11.20;;
61015;SDS011;46902;52.920;6.536;2023-12-14T10:48:47;22.20;;;11.25;;
61015;SDS011;46902;52.920;6.536;2023-12-14T10:51:13;22.10;;;11.20;;
61015;SDS011;46902;52.920;6.536;2023-12-14T10:53:40;17.75;;;10.40;;
61015;SDS011;46902;52.920;6.536;2023-12-14T10:56:10;20.33;;;11.50;;
61015;SDS011;46902;52.920;6.536;2023-12-14T10:58:52;18.45;;;10.77;;
61015;SDS011;46902;52.920;6.536;2023-12-14T11:01:22;19.58;;;10.10;;
61015;SDS011;46902;52.920;6.536;2023-12-14T11:03:49;24.23;;;11.15;;
61015;SDS011;46902;52.920;6.536;2023-12-14T11:06:28;16.77;;;10.30;;
61015;SDS011;46902;52.920;6.536;2023-12-14T11:12:19;18.70;;;10.32;;
61015;SDS011;46902;52.920;6.536;2023-12-14T11:14:18;20.75;;;10.77;;
61015;SDS011;46902;52.920;6.536;2023-12-14T11:16:44;16.73;;;10.38;;
61015;SDS011;46902;52.920;6.536;2023-12-14T11:21:46;20.83;;;10.38;;
61015;SDS011;46902;52.920;6.536;2023-12-14T11:24:12;17.48;;;10.38;;
61015;SDS011;46902;52.920;6.536;2023-12-14T11:26:38;18.35;;;9.27;;
61015;SDS011;46902;52.920;6.536;2023-12-14T11:29:05;16.70;;;9.50;;
61015;SDS011;46902;52.920;6.536;2023-12-14T11:31:32;16.75;;;9.23;;
61015;SDS011;46902;52.920;6.536;2023-12-14T11:33:58;14.70;;;9.75;;
61015;SDS011;46902;52.920;6.536;2023-12-14T11:36:25;16.58;;;10.23;;
61015;SDS011;46902;52.920;6.536;2023-12-14T11:38:51;15.70;;;9.77;;
61015;SDS011;46902;52.920;6.536;2023-12-14T11:41:20;17.92;;;9.90;;
61015;SDS011;46902;52.920;6.536;2023-12-14T11:43:46;17.55;;;10.20;;
61015;SDS011;46902;52.920;6.536;2023-12-14T11:46:12;17.48;;;9.52;;
61015;SDS011;46902;52.920;6.536;2023-12-14T11:48:39;16.42;;;9.55;;
61015;SDS011;46902;52.920;6.536;2023-12-14T11:51:05;16.25;;;9.80;;
61015;SDS011;46902;52.920;6.536;2023-12-14T11:53:30;18.02;;;9.38;;
61015;SDS011;46902;52.920;6.536;2023-12-14T11:55:58;15.95;;;9.70;;
61015;SDS011;46902;52.920;6.536;2023-12-14T11:58:27;17.13;;;9.75;;
61015;SDS011;46902;52.920;6.536;2023-12-14T12:00:53;13.38;;;8.90;;
61015;SDS011;46902;52.920;6.536;2023-12-14T12:03:20;16.25;;;9.43;;
61015;SDS011;46902;52.920;6.536;2023-12-14T12:05:46;15.50;;;9.35;;
61015;SDS011;46902;52.920;6.536;2023-12-14T12:08:17;14.65;;;9.13;;
61015;SDS011;46902;52.920;6.536;2023-12-14T12:10:44;13.88;;;9.32;;
61015;SDS011;46902;52.920;6.536;2023-12-14T12:13:15;17.20;;;9.20;;
61015;SDS011;46902;52.920;6.536;2023-12-14T12:15:42;16.02;;;9.05;;
61015;SDS011;46902;52.920;6.536;2023-12-14T12:18:08;13.20;;;9.13;;
61015;SDS011;46902;52.920;6.536;2023-12-14T12:20:35;16.08;;;9.43;;
61015;SDS011;46902;52.920;6.536;2023-12-14T12:23:01;16.10;;;9.07;;
61015;SDS011;46902;52.920;6.536;2023-12-14T12:25:28;11.70;;;8.48;;
61015;SDS011;46902;52.920;6.536;2023-12-14T12:27:55;14.95;;;8.70;;
61015;SDS011;46902;52.920;6.536;2023-12-14T12:30:21;15.48;;;8.63;;
61015;SDS011;46902;52.920;6.536;2023-12-14T12:32:48;15.60;;;8.30;;
61015;SDS011;46902;52.920;6.536;2023-12-14T12:35:20;14.60;;;8.60;;
61015;SDS011;46902;52.920;6.536;2023-12-14T12:37:47;15.15;;;9.00;;
61015;SDS011;46902;52.920;6.536;2023-12-14T12:40:18;14.98;;;8.77;;
61015;SDS011;46902;52.920;6.536;2023-12-14T12:42:48;17.45;;;9.82;;
61015;SDS011;46902;52.920;6.536;2023-12-14T12:45:14;11.38;;;8.68;;
61015;SDS011;46902;52.920;6.536;2023-12-14T12:47:44;12.40;;;8.82;;
61015;SDS011;46902;52.920;6.536;2023-12-14T12:50:09;15.05;;;9.80;;
61015;SDS011;46902;52.920;6.536;2023-12-14T12:52:35;12.40;;;8.98;;
61015;SDS011;46902;52.920;6.536;2023-12-14T12:55:02;14.60;;;8.68;;
61015;SDS011;46902;52.920;6.536;2023-12-14T12:57:29;13.20;;;8.20;;
61015;SDS011;46902;52.920;6.536;2023-12-14T12:59:54;15.60;;;9.32;;
61015;SDS011;46902;52.920;6.536;2023-12-14T13:02:20;15.90;;;10.00;;
61015;SDS011;46902;52.920;6.536;2023-12-14T13:04:46;15.07;;;10.23;;
61015;SDS011;46902;52.920;6.536;2023-12-14T13:07:12;12.48;;;9.32;;
61015;SDS011;46902;52.920;6.536;2023-12-14T13:09:37;16.63;;;10.40;;
61015;SDS011;46902;52.920;6.536;2023-12-14T13:12:03;19.73;;;10.15;;
61015;SDS011;46902;52.920;6.536;2023-12-14T13:14:29;15.05;;;9.00;;
61015;SDS011;46902;52.920;6.536;2023-12-14T13:16:56;16.70;;;10.00;;
61015;SDS011;46902;52.920;6.536;2023-12-14T13:19:23;13.50;;;9.45;;
61015;SDS011;46902;52.920;6.536;2023-12-14T13:21:49;15.88;;;10.10;;
61015;SDS011;46902;52.920;6.536;2023-12-14T13:24:14;15.18;;;9.82;;
61015;SDS011;46902;52.920;6.536;2023-12-14T13:26:40;16.60;;;10.10;;
61015;SDS011;46902;52.920;6.536;2023-12-14T13:29:06;14.20;;;9.43;;
61015;SDS011;46902;52.920;6.536;2023-12-14T13:31:31;13.05;;;9.27;;
61015;SDS011;46902;52.920;6.536;2023-12-14T13:33:57;16.30;;;10.13;;
61015;SDS011;46902;52.920;6.536;2023-12-14T13:36:22;16.48;;;10.35;;
61015;SDS011;46902;52.920;6.536;2023-12-14T13:38:48;16.80;;;10.27;;
61015;SDS011;46902;52.920;6.536;2023-12-14T13:41:14;14.68;;;10.18;;
61015;SDS011;46902;52.920;6.536;2023-12-14T13:43:40;15.07;;;10.00;;
61015;SDS011;46902;52.920;6.536;2023-12-14T13:46:05;14.10;;;8.75;;
61015;SDS011;46902;52.920;6.536;2023-12-14T13:48:31;17.52;;;9.57;;
61015;SDS011;46902;52.920;6.536;2023-12-14T13:50:56;14.27;;;9.50;;
61015;SDS011;46902;52.920;6.536;2023-12-14T13:53:22;13.48;;;9.02;;
61015;SDS011;46902;52.920;6.536;2023-12-14T13:55:48;14.75;;;10.10;;
61015;SDS011;46902;52.920;6.536;2023-12-14T13:58:15;13.35;;;9.73;;
61015;SDS011;46902;52.920;6.536;2023-12-14T14:00:41;14.18;;;9.05;;
61015;SDS011;46902;52.920;6.536;2023-12-14T14:03:08;13.88;;;8.85;;
61015;SDS011;46902;52.920;6.536;2023-12-14T14:05:34;14.27;;;9.15;;
61015;SDS011;46902;52.920;6.536;2023-12-14T14:08:00;12.65;;;9.20;;
61015;SDS011;46902;52.920;6.536;2023-12-14T14:10:26;14.40;;;9.40;;
61015;SDS011;46902;52.920;6.536;2023-12-14T14:12:51;13.43;;;9.32;;
61015;SDS011;46902;52.920;6.536;2023-12-14T14:15:18;13.70;;;8.95;;
61015;SDS011;46902;52.920;6.536;2023-12-14T14:17:45;14.25;;;9.10;;
61015;SDS011;46902;52.920;6.536;2023-12-14T14:20:13;13.43;;;9.73;;
61015;SDS011;46902;52.920;6.536;2023-12-14T14:22:39;14.70;;;8.90;;
61015;SDS011;46902;52.920;6.536;2023-12-14T14:25:05;15.23;;;8.50;;
61015;SDS011;46902;52.920;6.536;2023-12-14T14:27:31;14.68;;;9.25;;
61015;SDS011;46902;52.920;6.536;2023-12-14T14:30:00;16.02;;;9.18;;
61015;SDS011;46902;52.920;6.536;2023-12-14T14:32:26;13.60;;;8.50;;
61015;SDS011;46902;52.920;6.536;2023-12-14T14:34:52;14.98;;;9.30;;